Wood Lake, North Dakota
Current Conditions -  °F | °C
As of 5:15 AM on Monday 22 Dec 2014 (Local Time) from KDVL Reporting Station
Overcast Overcast  
Wind Chill: 23°   Ceiling: 1100
Heat Index: 30°   Visibility: 4mi
Dew Point: 25°   Wind: 7mph
Humidity: 80%   Direction: 80°E
Pressure: 29.47"   Gusts: NA
Location:  47.9248°N, 98.8159°W
Report Text: KDVL 221115Z AUTO 08006KT 4SM SCT006 OVC011 M01/M04 A2947 RMK AO1
Loading
Personal Weather Stations






























Interactive Weather Map New forecast layout! Learn more

10-Day Weather Forecast

Advertisements
Track Severe Weather on mobile